TOURFACTS.DK  
Stats and Facts from Tour de France.

Tour de France 2019 starts in 348 days
  Riders   Stages   Teams   Summits   Yearly  


 
Search by year

After 2018 - Stage 14:
 15000 starters.
  5163 different riders.
  639 teams.
  2246 stages.
  456 restdays.
  441957.60 km.
  5678 abandonnees.


Top 3
GC
Christopher Froome86:20:55
Rigoberto Urán86:21:49
Romain Bardet86:23:15
Climb
Warren Barguil169 pt.
Primoz Roglic80 pt.
Thomas De Gendt64 pt.
Sprint
Michael Matthews359 pt.
André Greipel234 pt.
Edvald Boasson Hagen220 pt.
Youth
Simon Yates86:27:09
Louis Meintjes86:29:15
Emanuel Buchmann86:54:16
Facts from Tour de France 1931
  |   Stages.  |   Stage winners.  |   Days in yellow  |   Average speed.  |   Route.  |   Teams.  |   All riders.  |   Rookies.  |  

  |   Withdrawls.  |   GC.  |   Polka  |   Green  |   White  |   Summits. (In tour)  |   Miscellaneous.  |  

Stage 5 on July 4th. 1931
         Owning:    Rafaële Di Paco    
Pick a stage:  1 2 3 4 5 6 7 8 9 10 11 12 13 14 15 16 17 18 19 20 21 22 23 24
From: Vannes    To: Les Sables-d´OlonneDist:203.00 km.

Average speed for all riders in stage:  30,683 km./hr.
    Place:Name:Team:Time:Km/h:
FRACharles PelissierFRAFrance06:36:49  +  00:00:00=30,694 
FRAAntonin MagneFRAFrance06:36:49  +  00:00:00=30,694 
AUTMax BullaTouristes Routiers06:36:49  +  00:00:00=30,694 
4 ITARafaële Di PacoITAItaly06:36:49  +  00:00:00=30,694 
5 BELJef DemuysereBELBelgium06:36:49  +  00:00:00=30,694 
6 ITAGiuseppe PanceraTouristes Routiers06:36:49  +  00:00:00=30,694 
7 BELGeorges LaloupTouristes Routiers06:36:49  +  00:00:00=30,694 
8 BELJean NaertTouristes Routiers06:36:49  +  00:00:00=30,694 
9 BELAuguste Van TrichtTouristes Routiers06:36:49  +  00:00:00=30,694 
10 BELGerard LonckeTouristes Routiers06:36:49  +  00:00:00=30,694 
11 BELAchille ViaeneTouristes Routiers06:36:49  +  00:00:00=30,694 
12 BELJules GoedhuysTouristes Routiers06:36:49  +  00:00:00=30,694 
13 ESPFrancisco CepedaESPSpain06:36:49  +  00:00:00=30,694 
14 FRALouis PeglionFRAFrance06:36:49  +  00:00:00=30,694 
15 FRALéon Le CalvezFRAFrance06:36:49  +  00:00:00=30,694 
16 FRAJean RiondetTouristes Routiers06:36:49  +  00:00:00=30,694 
17 BELRobert Van GrootenbrueleTouristes Routiers06:36:49  +  00:00:00=30,694 
18 ITAAlessandro CatalaniTouristes Routiers06:36:49  +  00:00:00=30,694 
19 ESPSalvador CardonaTouristes Routiers06:36:49  +  00:00:00=30,694 
20 FRAMarius GuiramandTouristes Routiers06:36:49  +  00:00:00=30,694 
21 FRAAndré GodinatTouristes Routiers06:36:49  +  00:00:00=30,694 
22 FRAFrancois FavéTouristes Routiers06:36:49  +  00:00:00=30,694 
23 FRAAdrien ButtafocchiTouristes Routiers06:36:49  +  00:00:00=30,694 
24 FRARobert BrugéreTouristes Routiers06:36:49  +  00:00:00=30,694 
25 FRAFrancis BouilletTouristes Routiers06:36:49  +  00:00:00=30,694 
26 FRAGeorges BertonTouristes Routiers06:36:49  +  00:00:00=30,694 
27 FRALouis BajardTouristes Routiers06:36:49  +  00:00:00=30,694 
28 FRAJean BidotTouristes Routiers06:36:49  +  00:00:00=30,694 
29 FRARené BernardTouristes Routiers06:36:49  +  00:00:00=30,694 
30 GERKurt NitzschkeTouristes Routiers06:36:49  +  00:00:00=30,694 
31 FRAFrancois HenriTouristes Routiers06:36:49  +  00:00:00=30,694 
32 FRAAndré Van VierstTouristes Routiers06:36:49  +  00:00:00=30,694 
33 FRAJean MaréchalFRAFrance06:36:49  +  00:00:00=30,694 
34 FRAAndré LeducqFRAFrance06:36:49  +  00:00:00=30,694 
35 AUSRichard LambCHEAustralia-Switzerland06:36:49  +  00:00:00=30,694 
36 AUSHubert OppermanCHEAustralia-Switzerland06:36:49  +  00:00:00=30,694 
37 BELJulien VervaeckeBELBelgium06:36:49  +  00:00:00=30,694 
38 ITAAntonio PesentiITAItaly06:36:49  +  00:00:00=30,694 
39 ITAMichele OrecchiaITAItaly06:36:49  +  00:00:00=30,694 
40 ITAFelice GremoITAItaly06:36:49  +  00:00:00=30,694 
41 ITAEugenio GestriITAItaly06:36:49  +  00:00:00=30,694 
42 ITAFrancesco CamussoITAItaly06:36:49  +  00:00:00=30,694 
43 ITAFabio BattesiniITAItaly06:36:49  +  00:00:00=30,694 
44 ITALuigi GiacobbeITAItaly06:36:49  +  00:00:00=30,694 
45 BELBernard Van RysselbergheBELBelgium06:36:49  +  00:00:00=30,694 
46 BELRomain GijsselsBELBelgium06:36:49  +  00:00:00=30,694 
47 SUIRoger PipozCHEAustralia-Switzerland06:36:49  +  00:00:00=30,694 
48 SUIGeorges AntenenCHEAustralia-Switzerland06:36:49  +  00:00:00=30,694 
49 FRABenoit FaureFRAFrance06:36:49  +  00:00:00=30,694 
50 GERKarl AltenburgerDEUGermany06:36:49  +  00:00:00=30,694 
51 BELAlfred HamerlinckBELBelgium06:36:49  +  00:00:00=30,694 
52 GERHermann BuseDEUGermany06:36:49  +  00:00:00=30,694 
53 GERKurt StöpelDEUGermany06:36:49  +  00:00:00=30,694 
54 GERLudwig GeyerDEUGermany06:36:49  +  00:00:00=30,694 
55 GERErich MetzeDEUGermany06:36:49  +  00:00:00=30,694 
56 POLAlfred SiegelDEUGermany06:36:49  +  00:00:00=30,694 
57 BELGaston RebryBELBelgium06:36:49  +  00:00:00=30,694 
58 GEROskar ThierbachDEUGermany06:36:49  +  00:00:00=30,694 
59 SUIAlbert BüchiCHEAustralia-Switzerland06:36:49  +  00:00:00=30,694 
60 FRAFernand FayolleTouristes Routiers06:37:23  +  00:00:34=30,651 
61 FRALazare VenotTouristes Routiers06:37:23  +  00:00:34=30,651 
62 GERErich UssatTouristes Routiers06:37:23  +  00:00:34=30,651 
63 ITAAmulio ViarengoTouristes Routiers06:37:23  +  00:00:34=30,651 
64 BELFrançois MoreelsTouristes Routiers06:37:23  +  00:00:34=30,651 
65 BELMaurice De WaeleBELBelgium06:37:40  +  00:00:51=30,629 
66 GERHerbert SieronskiDEUGermany06:38:29  +  00:01:40=30,566 
67 FRAJoseph MauclairFRAFrance06:38:57  +  00:02:08=30,530 
68 BELAlfons SchepersBELBelgium06:39:10  +  00:02:21=30,514 

Withdrawls: 1
 
Rider
Team
Reason
136  FRAJulien PerrainTouristes RoutiersDid not finish

Todays birthdays.

1877  Antoine Perrichon
1878  Auguste Berthault
1911  Théo Herckenrath
1924  Carlo Lafranchi
1931  Armand Di Caro
1937  Jean-Claude Lebaube
1951  Giovanni Battaglin
1961  Pascal Jules
1962  Jean-Claude Leclercq
1976  Janek Tombak
1978  Francisco Pérez
1983  Dries Devenyns




Visits: